createdAt,value
2019-04-21T00:01:50.318Z,10.74
2019-04-21T00:04:40.551Z,10.67
2019-04-21T00:07:40.318Z,10.68
2019-04-21T00:10:06.427Z,10.65
2019-04-21T00:12:35.666Z,10.57
2019-04-21T00:15:07.367Z,10.57
2019-04-21T00:17:32.114Z,10.61
2019-04-21T00:20:20.480Z,10.50
2019-04-21T00:22:58.593Z,10.41
2019-04-21T00:25:38.864Z,10.32
2019-04-21T00:28:25.374Z,10.32
2019-04-21T00:30:57.915Z,10.22
2019-04-21T00:33:21.412Z,10.20
2019-04-21T00:35:59.930Z,10.10
2019-04-21T00:38:58.752Z,10.00
2019-04-21T00:41:29.410Z,9.96
2019-04-21T00:43:59.848Z,9.96
2019-04-21T00:46:35.160Z,9.99
2019-04-21T00:49:15.240Z,9.95
2019-04-21T00:52:11.438Z,9.86
2019-04-21T00:54:53.773Z,9.96
2019-04-21T00:57:25.259Z,9.72
2019-04-21T00:59:59.137Z,9.67
2019-04-21T01:02:40.255Z,9.75
2019-04-21T01:05:16.938Z,9.79
2019-04-21T01:07:46.958Z,9.83
2019-04-21T01:10:53.198Z,9.92
2019-04-21T01:13:43.943Z,9.87
2019-04-21T01:16:14.808Z,9.81
2019-04-21T01:18:49.265Z,9.83
2019-04-21T01:21:14.055Z,9.61
2019-04-21T01:23:44.574Z,9.66
2019-04-21T01:26:37.264Z,9.53
2019-04-21T01:29:12.108Z,9.51
2019-04-21T01:31:48.252Z,9.55
2019-04-21T01:34:33.032Z,9.56
2019-04-21T01:37:05.661Z,9.50
2019-04-21T01:39:47.943Z,9.53
2019-04-21T01:42:48.415Z,9.53
2019-04-21T01:45:21.883Z,9.55
2019-04-21T01:47:58.535Z,9.55
2019-04-21T01:50:36.594Z,9.47
2019-04-21T01:53:28.310Z,9.44
2019-04-21T01:56:11.759Z,9.33
2019-04-21T01:58:44.285Z,9.24
2019-04-21T02:01:30.158Z,9.04
2019-04-21T02:04:02.766Z,9.12
2019-04-21T02:06:45.630Z,9.16
2019-04-21T02:09:15.356Z,9.08
2019-04-21T02:12:01.037Z,9.04
2019-04-21T02:14:41.239Z,9.03
2019-04-21T02:17:14.532Z,9.00
2019-04-21T02:19:41.220Z,9.03
2019-04-21T02:22:33.871Z,9.18
2019-04-21T02:25:02.963Z,9.08
2019-04-21T02:27:42.975Z,9.06
2019-04-21T02:30:29.699Z,9.19
2019-04-21T02:35:50.769Z,9.12
2019-04-21T02:38:27.620Z,9.19
2019-04-21T02:43:25.154Z,9.22
2019-04-21T02:46:12.476Z,9.05
2019-04-21T02:48:49.033Z,8.94
2019-04-21T02:51:21.862Z,8.91
2019-04-21T02:54:37.368Z,8.85
2019-04-21T02:59:17.041Z,8.76
2019-04-21T03:02:25.031Z,8.72
2019-04-21T03:05:11.528Z,8.75
2019-04-21T03:07:52.096Z,8.65
2019-04-21T03:10:26.717Z,8.57
2019-04-21T03:12:56.951Z,8.51
2019-04-21T03:15:45.083Z,8.33
2019-04-21T03:18:19.102Z,8.34
2019-04-21T03:20:51.124Z,8.31
2019-04-21T03:23:29.450Z,8.23
2019-04-21T03:26:14.301Z,7.95
2019-04-21T03:28:35.648Z,7.99
2019-04-21T03:31:36.006Z,8.06
2019-04-21T03:34:28.524Z,7.83
2019-04-21T03:36:47.575Z,7.91
2019-04-21T03:39:04.618Z,7.86
2019-04-21T03:41:50.540Z,7.90
2019-04-21T03:44:24.378Z,7.92
2019-04-21T03:47:11.068Z,7.75
2019-04-21T03:49:45.477Z,7.71
2019-04-21T03:52:36.604Z,7.86
2019-04-21T03:58:19.512Z,7.63
2019-04-21T04:01:05.564Z,7.44
2019-04-21T04:07:25.015Z,7.35
2019-04-21T04:10:06.466Z,7.37
2019-04-21T04:12:28.565Z,7.32
2019-04-21T04:17:40.773Z,7.27
2019-04-21T04:20:28.127Z,7.19
2019-04-21T04:25:33.523Z,7.14
2019-04-21T04:30:56.353Z,7.14
2019-04-21T04:33:41.787Z,7.02
2019-04-21T04:36:33.917Z,7.02
2019-04-21T04:39:01.955Z,6.92
2019-04-21T04:41:32.346Z,6.85
2019-04-21T04:44:13.702Z,6.82
2019-04-21T04:52:32.514Z,6.96
2019-04-21T04:54:59.499Z,7.16
2019-04-21T05:00:28.829Z,7.14
2019-04-21T05:02:40.243Z,7.16
2019-04-21T05:05:26.688Z,7.33
2019-04-21T05:08:31.507Z,7.40
2019-04-21T05:10:54.444Z,7.44
2019-04-21T05:13:20.406Z,7.48
2019-04-21T05:15:55.878Z,7.62
2019-04-21T05:18:25.350Z,7.83
2019-04-21T05:21:12.460Z,7.95
2019-04-21T05:23:32.608Z,8.11
2019-04-21T05:26:03.259Z,8.27
2019-04-21T05:28:41.970Z,8.34
2019-04-21T05:31:46.304Z,8.51
2019-04-21T05:34:22.365Z,8.61
2019-04-21T05:37:01.425Z,8.62
2019-04-21T05:39:52.409Z,8.67
2019-04-21T05:42:28.408Z,8.83
2019-04-21T05:45:31.251Z,9.12
2019-04-21T05:48:19.252Z,9.16
2019-04-21T05:50:46.150Z,9.29
2019-04-21T05:53:32.238Z,9.43
2019-04-21T05:56:03.604Z,9.60
2019-04-21T05:58:40.630Z,9.60
2019-04-21T06:01:23.734Z,9.81
2019-04-21T06:03:59.677Z,9.77
2019-04-21T06:06:33.617Z,10.01
2019-04-21T06:09:08.240Z,10.13
2019-04-21T06:11:42.456Z,10.29
2019-04-21T06:14:20.385Z,10.15
2019-04-21T06:17:04.594Z,10.17
2019-04-21T06:19:45.131Z,10.19
2019-04-21T06:22:10.464Z,10.46
2019-04-21T06:25:15.228Z,10.68
2019-04-21T06:27:34.093Z,10.78
2019-04-21T06:30:03.319Z,10.85
2019-04-21T06:32:50.542Z,11.02
2019-04-21T06:39:06.430Z,11.39
2019-04-21T06:44:12.906Z,11.71
2019-04-21T06:46:44.666Z,11.93
2019-04-21T06:49:22.266Z,11.92
2019-04-21T06:52:10.932Z,12.12
2019-04-21T06:54:45.200Z,12.18
2019-04-21T06:57:18.432Z,12.29
2019-04-21T06:59:52.085Z,12.30
2019-04-21T07:02:43.897Z,12.46
2019-04-21T07:05:07.925Z,12.63
2019-04-21T07:07:43.200Z,12.79
2019-04-21T07:10:20.991Z,12.74
2019-04-21T07:12:51.110Z,12.82
2019-04-21T07:15:40.931Z,12.86
2019-04-21T07:18:11.008Z,12.86
2019-04-21T07:20:49.041Z,13.12
2019-04-21T07:23:30.304Z,13.21
2019-04-21T07:26:02.746Z,13.12
2019-04-21T07:28:47.938Z,13.20
2019-04-21T07:31:25.005Z,13.23
2019-04-21T07:34:21.321Z,13.47
2019-04-21T07:36:46.410Z,13.62
2019-04-21T07:39:10.400Z,13.76
2019-04-21T07:41:45.141Z,13.88
2019-04-21T07:44:18.127Z,13.85
2019-04-21T07:46:56.375Z,13.87
2019-04-21T07:49:53.036Z,14.03
2019-04-21T07:52:49.100Z,14.02
2019-04-21T07:57:56.153Z,14.36
2019-04-21T08:00:45.508Z,14.55
2019-04-21T08:03:15.935Z,14.62
2019-04-21T08:05:53.037Z,14.73
2019-04-21T08:08:31.460Z,14.78
2019-04-21T08:11:01.591Z,14.94
2019-04-21T08:16:24.116Z,15.12
2019-04-21T08:19:03.222Z,15.40
2019-04-21T08:21:33.894Z,15.51
2019-04-21T08:24:07.693Z,15.68
2019-04-21T08:27:05.117Z,15.80
2019-04-21T08:29:44.804Z,15.87
2019-04-21T08:32:16.066Z,15.95
2019-04-21T08:37:11.746Z,16.25
2019-04-21T08:40:04.431Z,16.28
2019-04-21T08:42:35.831Z,16.42
2019-04-21T08:45:11.101Z,16.56
2019-04-21T08:47:45.756Z,16.67
2019-04-21T08:50:20.889Z,16.95
2019-04-21T08:55:51.047Z,17.20
2019-04-21T08:58:57.557Z,17.27
2019-04-21T09:01:46.578Z,17.33
2019-04-21T09:04:13.216Z,17.52
2019-04-21T09:07:05.145Z,17.55
2019-04-21T09:09:29.116Z,17.64
2019-04-21T09:12:04.441Z,17.88
2019-04-21T09:14:41.486Z,17.94
2019-04-21T09:17:14.858Z,18.15
2019-04-21T09:22:37.387Z,18.48
2019-04-21T09:25:09.150Z,18.42
2019-04-21T09:27:53.697Z,18.38
2019-04-21T09:30:08.718Z,18.55
2019-04-21T09:32:44.567Z,18.83
2019-04-21T09:35:20.848Z,19.07
2019-04-21T09:38:03.954Z,19.01
2019-04-21T09:40:40.092Z,19.28
2019-04-21T09:43:13.798Z,19.29
2019-04-21T09:45:49.630Z,19.37
2019-04-21T09:48:37.425Z,19.40
2019-04-21T09:51:06.467Z,19.52
2019-04-21T09:53:43.792Z,19.60
2019-04-21T09:56:30.495Z,19.74
2019-04-21T09:59:04.087Z,19.74
2019-04-21T10:01:50.069Z,19.64
2019-04-21T10:04:10.434Z,19.93
2019-04-21T10:06:45.655Z,20.03
2019-04-21T10:09:33.346Z,20.22
2019-04-21T10:12:09.863Z,20.35
2019-04-21T10:14:45.225Z,20.39
2019-04-21T10:17:23.949Z,20.37
2019-04-21T10:19:59.196Z,20.59
2019-04-21T10:22:35.593Z,20.84
2019-04-21T10:25:12.563Z,20.91
2019-04-21T10:27:47.908Z,20.91
2019-04-21T10:30:24.598Z,20.84
2019-04-21T10:33:00.743Z,20.94
2019-04-21T10:35:37.056Z,21.23
2019-04-21T10:38:22.678Z,21.32
2019-04-21T10:40:49.718Z,21.30
2019-04-21T10:43:25.697Z,21.37
2019-04-21T10:46:01.961Z,21.59
2019-04-21T10:48:38.231Z,21.66
2019-04-21T10:51:14.896Z,21.77
2019-04-21T10:53:53.874Z,22.05
2019-04-21T10:56:34.384Z,22.04
2019-04-21T10:59:04.600Z,22.17
2019-04-21T11:01:41.052Z,22.41
2019-04-21T11:04:34.661Z,22.59
2019-04-21T11:07:26.180Z,22.73
2019-04-21T11:10:22.175Z,22.89
2019-04-21T11:12:58.623Z,23.21
2019-04-21T11:15:34.993Z,23.62
2019-04-21T11:18:10.296Z,23.96
2019-04-21T11:20:46.627Z,24.30
2019-04-21T11:23:22.548Z,24.83
2019-04-21T11:25:58.110Z,24.83
2019-04-21T11:28:34.617Z,24.98
2019-04-21T11:31:11.072Z,25.56
2019-04-21T11:33:47.146Z,25.89
2019-04-21T11:36:22.609Z,26.29
2019-04-21T11:39:29.237Z,26.50
2019-04-21T11:41:57.467Z,26.61
2019-04-21T11:44:33.145Z,27.08
2019-04-21T11:47:10.521Z,27.65
2019-04-21T11:49:45.689Z,27.16
2019-04-21T11:52:22.603Z,27.42
2019-04-21T11:54:58.613Z,27.33
2019-04-21T11:57:38.320Z,27.40
2019-04-21T12:00:11.534Z,28.10
2019-04-21T12:02:47.757Z,28.34
2019-04-21T12:05:23.764Z,29.04
2019-04-21T12:08:00.144Z,29.17
2019-04-21T12:10:35.568Z,29.36
2019-04-21T12:13:11.990Z,29.33
2019-04-21T12:15:47.271Z,29.82
2019-04-21T12:18:25.048Z,29.76
2019-04-21T12:20:59.479Z,29.83
2019-04-21T12:23:34.792Z,30.31
2019-04-21T12:26:10.099Z,30.59
2019-04-21T12:28:45.950Z,30.70
2019-04-21T12:31:41.367Z,29.47
2019-04-21T12:34:16.569Z,30.15
2019-04-21T12:36:52.822Z,30.97
2019-04-21T12:39:27.885Z,31.59
2019-04-21T12:42:04.667Z,31.73
2019-04-21T12:44:41.256Z,31.99
2019-04-21T12:47:16.532Z,32.16
2019-04-21T12:49:52.057Z,32.40
2019-04-21T12:52:27.749Z,32.17
2019-04-21T12:55:05.733Z,32.22
2019-04-21T12:57:41.881Z,31.12
2019-04-21T13:00:18.826Z,31.60
2019-04-21T13:02:54.173Z,32.42
2019-04-21T13:05:29.624Z,33.16
2019-04-21T13:08:04.826Z,32.35
2019-04-21T13:10:40.217Z,33.78
2019-04-21T13:13:15.324Z,33.46
2019-04-21T13:15:51.567Z,33.86
2019-04-21T13:18:27.169Z,33.52
2019-04-21T13:21:03.900Z,32.89
2019-04-21T13:23:39.150Z,32.83
2019-04-21T13:26:16.147Z,32.37
2019-04-21T13:28:52.258Z,32.70
2019-04-21T13:31:27.922Z,33.96
2019-04-21T13:34:04.167Z,35.03
2019-04-21T13:36:41.416Z,34.72
2019-04-21T13:40:07.855Z,34.86
2019-04-21T13:42:39.408Z,34.62
2019-04-21T13:45:14.289Z,34.65
2019-04-21T13:47:54.755Z,35.52
2019-04-21T13:50:31.188Z,35.79
2019-04-21T13:53:06.959Z,35.90
2019-04-21T13:55:42.841Z,36.17
2019-04-21T13:58:17.822Z,36.24
2019-04-21T14:00:54.230Z,36.95
2019-04-21T14:03:29.381Z,37.02
2019-04-21T14:06:04.865Z,36.63
2019-04-21T14:09:01.168Z,36.19
2019-04-21T14:11:38.730Z,36.85
2019-04-21T14:14:14.444Z,37.28
2019-04-21T14:16:49.907Z,37.54
2019-04-21T14:19:25.615Z,37.87
2019-04-21T14:22:01.210Z,38.02
2019-04-21T14:24:38.664Z,37.07
2019-04-21T14:27:14.379Z,37.49
2019-04-21T14:29:51.578Z,37.67
2019-04-21T14:32:29.535Z,38.02
2019-04-21T14:35:06.936Z,37.57
2019-04-21T14:37:44.512Z,36.22
2019-04-21T14:40:23.699Z,37.28
2019-04-21T14:43:00.262Z,37.73
2019-04-21T14:45:41.095Z,37.37
2019-04-21T14:48:34.923Z,37.12
2019-04-21T14:52:05.465Z,37.73
2019-04-21T14:55:00.603Z,37.33
2019-04-21T14:57:36.983Z,36.97
2019-04-21T15:00:22.854Z,36.55
2019-04-21T15:02:57.918Z,36.50
2019-04-21T15:05:33.475Z,34.93
2019-04-21T15:08:11.029Z,35.71
2019-04-21T15:10:47.201Z,35.68
2019-04-21T15:13:23.712Z,35.60
2019-04-21T15:15:58.873Z,35.14
2019-04-21T15:18:34.689Z,34.71
2019-04-21T15:21:11.046Z,34.62
2019-04-21T15:23:48.457Z,34.18
2019-04-21T15:26:24.150Z,32.82
2019-04-21T15:28:59.422Z,32.23
2019-04-21T15:31:39.192Z,31.91
2019-04-21T15:34:13.020Z,31.24
2019-04-21T15:36:52.404Z,31.66
2019-04-21T15:39:28.033Z,30.98
2019-04-21T15:42:03.397Z,31.49
2019-04-21T15:44:38.777Z,31.65
2019-04-21T15:47:13.940Z,32.13
2019-04-21T15:50:02.904Z,32.34
2019-04-21T15:52:33.850Z,32.09
2019-04-21T15:55:39.011Z,32.84
2019-04-21T15:58:34.617Z,33.91
2019-04-21T16:01:38.895Z,34.08
2019-04-21T16:04:14.707Z,34.45
2019-04-21T16:06:50.685Z,33.49
2019-04-21T16:09:28.271Z,33.24
2019-04-21T16:12:03.980Z,33.55
2019-04-21T16:14:44.987Z,33.86
2019-04-21T16:17:21.287Z,32.70
2019-04-21T16:19:56.469Z,32.65
2019-04-21T16:22:32.660Z,31.96
2019-04-21T16:25:10.614Z,32.32
2019-04-21T16:27:45.828Z,33.29
2019-04-21T16:30:22.044Z,34.41
2019-04-21T16:32:57.146Z,33.74
2019-04-21T16:35:33.707Z,34.60
2019-04-21T16:38:08.859Z,33.90
2019-04-21T16:40:52.536Z,33.97
2019-04-21T16:43:20.950Z,34.29
2019-04-21T16:45:57.113Z,33.34
2019-04-21T16:48:33.799Z,32.83
2019-04-21T16:51:09.914Z,33.73
2019-04-21T16:53:50.300Z,34.48
2019-04-21T16:56:52.335Z,35.33
2019-04-21T16:59:32.729Z,35.96
2019-04-21T17:02:07.882Z,35.55
2019-04-21T17:04:44.368Z,36.09
2019-04-21T17:07:19.984Z,37.04
2019-04-21T17:09:56.752Z,36.91
2019-04-21T17:12:33.015Z,36.58
2019-04-21T17:15:25.198Z,36.12
2019-04-21T17:18:06.057Z,35.22
2019-04-21T17:20:34.246Z,32.97
2019-04-21T17:23:01.766Z,31.26
2019-04-21T17:25:41.175Z,29.79
2019-04-21T17:28:17.371Z,28.66
2019-04-21T17:30:55.757Z,27.99
2019-04-21T17:33:32.349Z,27.42
2019-04-21T17:36:09.238Z,27.25
2019-04-21T17:38:44.273Z,27.91
2019-04-21T17:41:28.996Z,27.84
2019-04-21T17:43:56.286Z,27.42
2019-04-21T17:46:43.138Z,27.02
2019-04-21T17:49:08.644Z,27.11
2019-04-21T17:52:21.630Z,27.78
2019-04-21T17:55:18.426Z,27.77
2019-04-21T17:58:06.596Z,26.94
2019-04-21T18:03:40.758Z,25.05
2019-04-21T18:06:01.641Z,24.39
2019-04-21T18:08:47.931Z,24.07
2019-04-21T18:11:15.375Z,23.48
2019-04-21T18:13:41.979Z,23.08
2019-04-21T18:16:26.637Z,22.73
2019-04-21T18:18:56.998Z,22.44
2019-04-21T18:21:46.912Z,22.32
2019-04-21T18:24:22.475Z,21.91
2019-04-21T18:26:57.244Z,21.77
2019-04-21T18:29:31.709Z,21.42
2019-04-21T18:32:08.339Z,21.19
2019-04-21T18:35:13.531Z,21.09
2019-04-21T18:38:08.094Z,20.75
2019-04-21T18:40:42.337Z,20.50
2019-04-21T18:46:31.399Z,20.34
2019-04-21T18:48:53.426Z,20.21
2019-04-21T18:51:57.161Z,20.37
2019-04-21T18:54:45.813Z,20.30
2019-04-21T18:57:18.622Z,20.22
2019-04-21T18:59:47.270Z,20.04
2019-04-21T19:02:22.472Z,20.03
2019-04-21T19:05:05.338Z,19.79
2019-04-21T19:07:59.282Z,19.84
2019-04-21T19:10:35.464Z,19.81
2019-04-21T19:13:28.262Z,19.66
2019-04-21T19:15:48.147Z,19.52
2019-04-21T19:20:54.039Z,19.51
2019-04-21T19:23:45.316Z,19.31
2019-04-21T19:26:21.897Z,19.13
2019-04-21T19:28:56.052Z,19.01
2019-04-21T19:31:24.815Z,19.10
2019-04-21T19:33:51.681Z,19.13
2019-04-21T19:36:21.421Z,18.96
2019-04-21T19:39:07.593Z,19.01
2019-04-21T19:41:55.538Z,18.76
2019-04-21T19:44:26.333Z,18.77
2019-04-21T19:47:13.749Z,18.66
2019-04-21T19:49:50.066Z,18.60
2019-04-21T19:52:20.290Z,18.47
2019-04-21T19:54:48.198Z,18.42
2019-04-21T19:57:20.976Z,18.41
2019-04-21T20:00:01.368Z,18.19
2019-04-21T20:02:34.286Z,18.14
2019-04-21T20:05:16.442Z,18.11
2019-04-21T20:08:04.049Z,18.06
2019-04-21T20:10:44.162Z,17.87
2019-04-21T20:13:26.112Z,17.85
2019-04-21T20:15:59.750Z,17.67
2019-04-21T20:18:25.142Z,17.38
2019-04-21T20:20:54.353Z,17.20
2019-04-21T20:23:34.864Z,17.11
2019-04-21T20:26:09.557Z,16.96
2019-04-21T20:28:53.168Z,16.83
2019-04-21T20:31:36.114Z,16.72
2019-04-21T20:34:17.742Z,16.60
2019-04-21T20:36:59.749Z,16.63
2019-04-21T20:39:21.343Z,16.45
2019-04-21T20:42:01.865Z,16.41
2019-04-21T20:44:43.752Z,16.13
2019-04-21T20:47:16.058Z,16.00
2019-04-21T20:49:57.178Z,15.90
2019-04-21T20:52:38.353Z,15.85
2019-04-21T20:55:07.683Z,15.83
2019-04-21T20:57:50.637Z,15.69
2019-04-21T21:00:30.148Z,15.61
2019-04-21T21:03:09.246Z,15.49
2019-04-21T21:05:37.587Z,15.51
2019-04-21T21:08:24.061Z,15.48
2019-04-21T21:10:52.764Z,15.55
2019-04-21T21:13:31.982Z,15.61
2019-04-21T21:16:38.501Z,15.64
2019-04-21T21:21:23.000Z,15.72
2019-04-21T21:23:58.936Z,15.65
2019-04-21T21:26:37.723Z,15.72
2019-04-21T21:29:06.506Z,15.85
2019-04-21T21:31:49.083Z,15.74
2019-04-21T21:34:28.091Z,15.77
2019-04-21T21:37:17.735Z,15.65
2019-04-21T21:39:48.850Z,15.66
2019-04-21T21:42:02.732Z,15.72
2019-04-21T21:44:41.723Z,15.75
2019-04-21T21:47:24.196Z,15.79
2019-04-21T21:50:01.307Z,15.73
2019-04-21T21:52:39.790Z,15.69
2019-04-21T21:55:05.699Z,15.66
2019-04-21T21:57:47.579Z,15.60
2019-04-21T22:00:21.813Z,15.59
2019-04-21T22:03:03.873Z,15.51
2019-04-21T22:05:48.244Z,15.41
2019-04-21T22:08:12.425Z,15.30
2019-04-21T22:10:49.533Z,15.23
2019-04-21T22:13:37.639Z,15.19
2019-04-21T22:16:12.491Z,15.23
2019-04-21T22:19:04.720Z,15.13
2019-04-21T22:21:44.363Z,15.14
2019-04-21T22:24:05.700Z,14.92
2019-04-21T22:26:35.050Z,14.85
2019-04-21T22:29:10.024Z,14.81
2019-04-21T22:32:15.254Z,14.79
2019-04-21T22:34:52.313Z,14.75
2019-04-21T22:37:38.032Z,14.68
2019-04-21T22:40:12.705Z,14.58
2019-04-21T22:42:48.515Z,14.57
2019-04-21T22:45:15.470Z,14.72
2019-04-21T22:47:52.020Z,14.55
2019-04-21T22:50:31.168Z,14.54
2019-04-21T22:53:09.622Z,14.59
2019-04-21T22:55:45.004Z,14.72
2019-04-21T22:58:28.223Z,14.50
2019-04-21T23:01:01.569Z,14.62
2019-04-21T23:03:35.609Z,14.32
2019-04-21T23:06:19.195Z,14.53
2019-04-21T23:08:49.472Z,14.44
2019-04-21T23:11:28.087Z,14.42
2019-04-21T23:14:06.009Z,14.46
2019-04-21T23:16:41.426Z,14.45
2019-04-21T23:19:28.016Z,14.43
2019-04-21T23:22:09.522Z,14.38
2019-04-21T23:24:54.557Z,14.24
2019-04-21T23:27:15.008Z,14.10
2019-04-21T23:30:09.807Z,14.21
2019-04-21T23:32:30.433Z,14.21
2019-04-21T23:34:56.193Z,14.13
2019-04-21T23:37:34.112Z,14.07
2019-04-21T23:40:16.329Z,14.01
2019-04-21T23:42:49.043Z,13.87
2019-04-21T23:45:30.491Z,13.88
2019-04-21T23:48:15.885Z,13.81
2019-04-21T23:50:45.897Z,13.90
2019-04-21T23:53:15.450Z,13.85
2019-04-21T23:55:50.477Z,13.92
2019-04-21T23:58:29.452Z,13.85
